createdAt,value
2018-12-02T00:00:24.834Z,4.20
2018-12-02T00:00:59.682Z,4.10
2018-12-02T00:01:33.904Z,4.10
2018-12-02T00:02:08.095Z,4.10
2018-12-02T00:02:42.218Z,4.10
2018-12-02T00:03:16.679Z,4.10
2018-12-02T00:03:51.068Z,4.10
2018-12-02T00:04:25.560Z,4.10
2018-12-02T00:05:00.006Z,4.10
2018-12-02T00:05:34.431Z,4.10
2018-12-02T00:06:08.545Z,4.10
2018-12-02T00:06:42.690Z,4.10
2018-12-02T00:07:16.782Z,4.10
2018-12-02T00:07:51.607Z,4.10
2018-12-02T00:08:26.047Z,4.10
2018-12-02T00:09:00.182Z,4.10
2018-12-02T00:09:34.346Z,4.10
2018-12-02T00:10:11.219Z,4.10
2018-12-02T00:10:45.700Z,4.10
2018-12-02T00:11:19.824Z,4.10
2018-12-02T00:11:53.948Z,4.10
2018-12-02T00:12:28.270Z,4.10
2018-12-02T00:13:03.038Z,4.10
2018-12-02T00:13:37.138Z,4.10
2018-12-02T00:14:11.245Z,4.10
2018-12-02T00:14:45.522Z,4.10
2018-12-02T00:15:25.478Z,4.10
2018-12-02T00:15:59.630Z,4.10
2018-12-02T00:16:33.720Z,4.10
2018-12-02T00:17:07.815Z,4.10
2018-12-02T00:17:41.884Z,4.20
2018-12-02T00:18:16.355Z,4.20
2018-12-02T00:18:50.464Z,4.20
2018-12-02T00:19:24.572Z,4.20
2018-12-02T00:19:58.688Z,4.20
2018-12-02T00:20:33.129Z,4.20
2018-12-02T00:21:07.589Z,4.20
2018-12-02T00:21:41.672Z,4.20
2018-12-02T00:22:15.783Z,4.20
2018-12-02T00:22:50.590Z,4.20
2018-12-02T00:23:24.347Z,4.20
2018-12-02T00:23:58.501Z,4.20
2018-12-02T00:24:32.644Z,4.20
2018-12-02T00:25:08.584Z,4.20
2018-12-02T00:25:43.046Z,4.20
2018-12-02T00:26:17.160Z,4.20
2018-12-02T00:26:51.291Z,4.20
2018-12-02T00:27:25.399Z,4.20
2018-12-02T00:28:00.695Z,4.20
2018-12-02T00:28:34.974Z,4.30
2018-12-02T00:29:09.402Z,4.20
2018-12-02T00:29:43.544Z,4.30
2018-12-02T00:30:23.742Z,4.30
2018-12-02T00:30:58.167Z,4.30
2018-12-02T00:31:32.300Z,4.30
2018-12-02T00:32:07.367Z,4.30
2018-12-02T00:32:42.165Z,4.30
2018-12-02T00:33:16.266Z,4.30
2018-12-02T00:33:50.691Z,4.30
2018-12-02T00:34:24.790Z,4.30
2018-12-02T00:34:58.927Z,4.30
2018-12-02T00:35:33.280Z,4.30
2018-12-02T00:36:07.703Z,4.30
2018-12-02T00:36:41.841Z,4.30
2018-12-02T00:37:15.967Z,4.30
2018-12-02T00:37:58.910Z,4.30
2018-12-02T00:38:33.327Z,4.30
2018-12-02T00:39:07.445Z,4.30
2018-12-02T00:39:41.571Z,4.30
2018-12-02T00:40:16.878Z,4.30
2018-12-02T00:40:50.995Z,4.30
2018-12-02T00:41:25.414Z,4.30
2018-12-02T00:47:03.589Z,4.30
2018-12-02T00:47:38.861Z,4.30
2018-12-02T00:48:12.950Z,4.30
2018-12-02T00:48:47.050Z,4.30
2018-12-02T00:49:21.157Z,4.30
2018-12-02T00:49:55.574Z,4.30
2018-12-02T00:50:30.021Z,4.30
2018-12-02T00:51:04.111Z,4.30
2018-12-02T00:51:38.523Z,4.30
2018-12-02T00:52:12.970Z,4.30
2018-12-02T00:52:51.063Z,4.30
2018-12-02T00:53:25.156Z,4.30
2018-12-02T00:53:59.594Z,4.30
2018-12-02T00:54:33.713Z,4.30
2018-12-02T00:55:10.807Z,4.30
2018-12-02T00:55:44.931Z,4.40
2018-12-02T00:56:18.080Z,4.40
2018-12-02T00:56:52.210Z,4.40
2018-12-02T00:57:26.310Z,4.40
2018-12-02T00:58:00.428Z,4.40
2018-12-02T00:58:34.523Z,4.40
2018-12-02T00:59:08.660Z,4.40
2018-12-02T00:59:42.743Z,4.40
2018-12-02T01:00:17.655Z,4.40
2018-12-02T01:00:51.807Z,4.40
2018-12-02T01:01:25.951Z,4.40
2018-12-02T01:02:00.363Z,4.40
2018-12-02T01:02:34.795Z,4.40
2018-12-02T01:03:09.812Z,4.40
2018-12-02T01:03:43.911Z,4.40
2018-12-02T01:04:18.013Z,4.50
2018-12-02T01:04:52.129Z,4.40
2018-12-02T01:05:26.231Z,4.50
2018-12-02T01:06:00.431Z,4.40
2018-12-02T01:06:34.573Z,4.50
2018-12-02T01:07:08.705Z,4.50
2018-12-02T01:07:42.813Z,4.50
2018-12-02T01:08:16.928Z,4.50
2018-12-02T01:08:51.401Z,4.50
2018-12-02T01:09:25.734Z,4.50
2018-12-02T01:10:00.164Z,4.50
2018-12-02T01:10:34.257Z,4.50
2018-12-02T01:11:08.383Z,4.40
2018-12-02T01:11:42.509Z,4.50
2018-12-02T01:12:16.626Z,4.50
2018-12-02T01:12:52.119Z,4.50
2018-12-02T01:13:26.235Z,4.50
2018-12-02T01:14:00.672Z,4.50
2018-12-02T01:14:34.787Z,4.50
2018-12-02T01:15:10.215Z,4.50
2018-12-02T01:15:44.673Z,4.40
2018-12-02T01:16:18.771Z,4.40
2018-12-02T01:16:52.911Z,4.40
2018-12-02T01:17:27.021Z,4.40
2018-12-02T01:18:01.482Z,4.40
2018-12-02T01:18:35.588Z,4.40
2018-12-02T01:19:09.785Z,4.40
2018-12-02T01:19:43.841Z,4.40
2018-12-02T01:20:20.910Z,4.40
2018-12-02T01:20:55.339Z,4.40
2018-12-02T01:21:29.883Z,4.40
2018-12-02T01:22:03.975Z,4.40
2018-12-02T01:22:38.081Z,4.40
2018-12-02T01:23:12.505Z,4.40
2018-12-02T01:23:46.620Z,4.40
2018-12-02T01:24:21.036Z,4.40
2018-12-02T01:24:55.127Z,4.40
2018-12-02T01:25:29.209Z,4.40
2018-12-02T01:26:03.299Z,4.40
2018-12-02T01:26:37.739Z,4.40
2018-12-02T01:27:11.827Z,4.40
2018-12-02T01:27:46.426Z,4.40
2018-12-02T01:28:20.529Z,4.40
2018-12-02T01:28:54.971Z,4.40
2018-12-02T01:29:29.107Z,4.40
2018-12-02T01:30:03.211Z,4.40
2018-12-02T01:30:37.319Z,4.40
2018-12-02T01:31:11.760Z,4.40
2018-12-02T01:31:46.202Z,4.40
2018-12-02T01:32:20.290Z,4.40
2018-12-02T01:32:55.796Z,4.40
2018-12-02T01:33:29.887Z,4.40
2018-12-02T01:34:03.981Z,4.40
2018-12-02T01:34:38.450Z,4.40
2018-12-02T01:35:13.084Z,4.40
2018-12-02T01:35:47.191Z,4.40
2018-12-02T01:36:21.620Z,4.40
2018-12-02T01:36:55.809Z,4.40
2018-12-02T01:37:30.274Z,4.40
2018-12-02T01:38:04.418Z,4.30
2018-12-02T01:38:39.200Z,4.40
2018-12-02T01:39:13.329Z,4.30
2018-12-02T01:39:47.471Z,4.30
2018-12-02T01:40:22.632Z,4.30
2018-12-02T01:40:56.759Z,4.30
2018-12-02T01:41:30.919Z,4.30
2018-12-02T01:42:05.066Z,4.30
2018-12-02T01:42:39.912Z,4.30
2018-12-02T01:43:14.138Z,4.30
2018-12-02T01:43:48.660Z,4.30
2018-12-02T01:44:23.131Z,4.30
2018-12-02T01:44:57.247Z,4.30
2018-12-02T01:45:31.817Z,4.30
2018-12-02T01:46:06.273Z,4.30
2018-12-02T01:46:40.411Z,4.20
2018-12-02T01:47:14.519Z,4.30
2018-12-02T01:47:48.627Z,4.30
2018-12-02T01:48:22.771Z,4.20
2018-12-02T01:48:57.211Z,4.20
2018-12-02T01:49:31.333Z,4.20
2018-12-02T01:50:08.233Z,4.20
2018-12-02T01:50:42.689Z,4.20
2018-12-02T01:51:17.183Z,4.20
2018-12-02T01:51:51.348Z,4.30
2018-12-02T01:52:25.439Z,4.20
2018-12-02T01:52:59.516Z,4.20
2018-12-02T01:53:33.939Z,4.20
2018-12-02T01:54:08.360Z,4.30
2018-12-02T01:54:42.473Z,4.30
2018-12-02T01:55:16.595Z,4.30
2018-12-02T01:55:51.377Z,4.30
2018-12-02T01:56:25.819Z,4.30
2018-12-02T01:56:59.939Z,4.30
2018-12-02T01:57:34.051Z,4.30
2018-12-02T01:58:08.505Z,4.30
2018-12-02T01:58:42.591Z,4.30
2018-12-02T01:59:16.723Z,4.30
2018-12-02T01:59:50.843Z,4.40
2018-12-02T02:00:26.452Z,4.40
2018-12-02T02:01:00.611Z,4.40
2018-12-02T02:01:34.951Z,4.40
2018-12-02T02:02:09.459Z,4.40
2018-12-02T02:02:43.966Z,4.40
2018-12-02T02:03:18.104Z,4.40
2018-12-02T02:03:52.216Z,4.40
2018-12-02T02:04:26.672Z,4.40
2018-12-02T02:05:00.762Z,4.40
2018-12-02T02:05:34.863Z,4.40
2018-12-02T02:06:09.029Z,4.40
2018-12-02T02:06:43.155Z,4.40
2018-12-02T02:07:17.304Z,4.40
2018-12-02T02:07:52.087Z,4.40
2018-12-02T02:08:26.206Z,4.50
2018-12-02T02:09:00.998Z,4.50
2018-12-02T02:09:35.482Z,4.50
2018-12-02T02:10:15.102Z,4.50
2018-12-02T02:10:49.218Z,4.50
2018-12-02T02:11:23.356Z,4.50
2018-12-02T02:11:57.447Z,4.50
2018-12-02T02:12:31.560Z,4.50
2018-12-02T02:13:06.013Z,4.50
2018-12-02T02:13:40.405Z,4.50
2018-12-02T02:14:14.591Z,4.50
2018-12-02T02:14:48.680Z,4.50
2018-12-02T02:15:23.228Z,4.50
2018-12-02T02:15:57.344Z,4.50
2018-12-02T02:16:31.459Z,4.50
2018-12-02T02:17:06.463Z,4.50
2018-12-02T02:17:40.650Z,4.60
2018-12-02T02:18:15.127Z,4.60
2018-12-02T02:18:49.663Z,4.60
2018-12-02T02:19:23.787Z,4.50
2018-12-02T02:19:57.917Z,4.60
2018-12-02T02:20:32.369Z,4.60
2018-12-02T02:21:07.171Z,4.60
2018-12-02T02:21:41.311Z,4.60
2018-12-02T02:22:15.475Z,4.60
2018-12-02T02:22:49.964Z,4.60
2018-12-02T02:23:24.120Z,4.60
2018-12-02T02:23:58.231Z,4.60
2018-12-02T02:24:32.371Z,4.60
2018-12-02T02:25:08.349Z,4.60
2018-12-02T02:25:43.133Z,4.60
2018-12-02T02:26:17.260Z,4.60
2018-12-02T02:26:52.059Z,4.60
2018-12-02T02:27:26.227Z,4.60
2018-12-02T02:28:00.719Z,4.60
2018-12-02T02:28:34.849Z,4.60
2018-12-02T02:29:09.015Z,4.60
2018-12-02T02:29:43.139Z,4.60
2018-12-02T02:30:21.184Z,4.60
2018-12-02T02:30:55.685Z,4.60
2018-12-02T02:31:29.857Z,4.60
2018-12-02T02:32:03.975Z,4.60
2018-12-02T02:32:38.465Z,4.60
2018-12-02T02:33:12.582Z,4.60
2018-12-02T02:33:46.765Z,4.60
2018-12-02T02:34:20.849Z,4.60
2018-12-02T02:34:54.993Z,4.60
2018-12-02T02:35:29.255Z,4.60
2018-12-02T02:36:03.400Z,4.60
2018-12-02T02:36:37.501Z,4.60
2018-12-02T02:37:11.972Z,4.60
2018-12-02T02:37:46.334Z,4.60
2018-12-02T02:38:20.416Z,4.60
2018-12-02T02:38:54.863Z,4.60
2018-12-02T02:39:28.963Z,4.60
2018-12-02T02:40:04.463Z,4.60
2018-12-02T02:40:38.890Z,4.60
2018-12-02T02:41:13.339Z,4.60
2018-12-02T02:41:47.762Z,4.60
2018-12-02T02:42:21.890Z,4.60
2018-12-02T02:42:56.039Z,4.60
2018-12-02T02:43:30.169Z,4.60
2018-12-02T02:44:04.688Z,4.60
2018-12-02T02:44:38.783Z,4.60
2018-12-02T02:45:13.500Z,4.60
2018-12-02T02:45:47.652Z,4.60
2018-12-02T02:46:21.771Z,4.60
2018-12-02T02:46:55.850Z,4.60
2018-12-02T02:47:29.967Z,4.60
2018-12-02T02:48:04.807Z,4.60
2018-12-02T02:48:38.943Z,4.60
2018-12-02T02:49:13.039Z,4.60
2018-12-02T02:49:47.148Z,4.60
2018-12-02T02:50:22.277Z,4.60
2018-12-02T02:50:56.373Z,4.60
2018-12-02T02:51:30.505Z,4.60
2018-12-02T02:52:04.763Z,4.60
2018-12-02T02:52:39.685Z,4.60
2018-12-02T02:53:13.839Z,4.60
2018-12-02T02:53:47.937Z,4.60
2018-12-02T02:54:22.367Z,4.60
2018-12-02T02:54:56.792Z,4.60
2018-12-02T02:55:31.222Z,4.70
2018-12-02T02:56:05.877Z,4.60
2018-12-02T02:56:39.995Z,4.70
2018-12-02T02:57:14.159Z,4.60
2018-12-02T02:57:48.590Z,4.70
2018-12-02T02:58:22.691Z,4.60
2018-12-02T02:58:57.207Z,4.70
2018-12-02T02:59:31.302Z,4.60
2018-12-02T03:00:09.860Z,4.70
2018-12-02T03:00:44.122Z,4.60
2018-12-02T03:01:18.243Z,4.70
2018-12-02T03:01:52.395Z,4.70
2018-12-02T03:02:26.582Z,4.60
2018-12-02T03:03:00.680Z,4.70
2018-12-02T03:03:35.194Z,4.70
2018-12-02T03:04:09.340Z,4.70
2018-12-02T03:04:43.779Z,4.70
2018-12-02T03:05:18.429Z,4.70
2018-12-02T03:05:52.579Z,4.70
2018-12-02T03:06:26.675Z,4.70
2018-12-02T03:07:01.449Z,4.70
2018-12-02T03:07:35.579Z,4.70
2018-12-02T03:08:10.370Z,4.70
2018-12-02T03:08:44.809Z,4.70
2018-12-02T03:09:18.959Z,4.70
2018-12-02T03:09:53.073Z,4.70
2018-12-02T03:10:27.251Z,4.70
2018-12-02T03:11:01.381Z,4.70
2018-12-02T03:11:35.597Z,4.70
2018-12-02T03:12:10.057Z,4.70
2018-12-02T03:12:45.593Z,4.70
2018-12-02T03:13:20.124Z,4.70
2018-12-02T03:13:54.267Z,4.70
2018-12-02T03:14:28.367Z,4.70
2018-12-02T03:15:02.881Z,4.80
2018-12-02T03:15:37.039Z,4.80
2018-12-02T03:16:11.537Z,4.80
2018-12-02T03:16:45.659Z,4.80
2018-12-02T03:17:20.197Z,4.80
2018-12-02T03:17:54.380Z,4.80
2018-12-02T03:18:28.482Z,4.80
2018-12-02T03:19:02.561Z,4.80
2018-12-02T03:19:37.448Z,4.80
2018-12-02T03:20:14.499Z,4.80
2018-12-02T03:20:48.617Z,4.80
2018-12-02T03:21:22.691Z,4.80
2018-12-02T03:21:56.795Z,4.80
2018-12-02T03:22:31.253Z,4.80
2018-12-02T03:23:05.438Z,4.80
2018-12-02T03:23:39.940Z,4.80
2018-12-02T03:24:14.050Z,4.80
2018-12-02T03:24:48.208Z,4.80
2018-12-02T03:25:24.716Z,4.80
2018-12-02T03:25:58.856Z,4.80
2018-12-02T03:26:32.997Z,4.80
2018-12-02T03:27:07.157Z,4.80
2018-12-02T03:27:41.949Z,4.80
2018-12-02T03:28:16.142Z,4.80
2018-12-02T03:28:50.290Z,4.80
2018-12-02T03:29:24.431Z,4.80
2018-12-02T03:29:58.555Z,4.80
2018-12-02T03:30:32.676Z,4.80
2018-12-02T03:31:06.810Z,4.80
2018-12-02T03:31:41.270Z,4.80
2018-12-02T03:32:15.414Z,4.80
2018-12-02T03:32:49.589Z,4.80
2018-12-02T03:33:23.783Z,4.80
2018-12-02T03:33:57.935Z,4.80
2018-12-02T03:34:32.066Z,4.80
2018-12-02T03:35:07.500Z,4.80
2018-12-02T03:35:41.647Z,4.80
2018-12-02T03:36:15.763Z,4.80
2018-12-02T03:36:50.175Z,4.80
2018-12-02T03:37:24.395Z,4.80
2018-12-02T03:37:58.527Z,4.80
2018-12-02T03:38:33.327Z,4.80
2018-12-02T03:39:08.501Z,4.80
2018-12-02T03:39:42.966Z,4.80
2018-12-02T03:40:20.523Z,4.80
2018-12-02T03:40:55.079Z,4.80
2018-12-02T03:41:29.218Z,4.80
2018-12-02T03:42:03.671Z,4.80
2018-12-02T03:42:37.892Z,4.80
2018-12-02T03:43:12.385Z,4.80
2018-12-02T03:43:46.843Z,4.80
2018-12-02T03:44:20.974Z,4.80
2018-12-02T03:44:55.121Z,4.80
2018-12-02T03:45:29.457Z,4.80
2018-12-02T03:46:03.558Z,4.70
2018-12-02T03:46:38.092Z,4.80
2018-12-02T03:47:12.241Z,4.80
2018-12-02T03:47:46.665Z,4.80
2018-12-02T03:48:21.482Z,4.80
2018-12-02T03:48:55.615Z,4.80
2018-12-02T03:49:29.721Z,4.80
2018-12-02T03:50:06.103Z,4.80
2018-12-02T03:50:41.314Z,4.80
2018-12-02T03:51:15.423Z,4.80
2018-12-02T03:51:49.545Z,4.80
2018-12-02T03:52:23.648Z,4.80
2018-12-02T03:52:57.823Z,4.70
2018-12-02T03:53:31.978Z,4.70
2018-12-02T03:54:06.586Z,4.70
2018-12-02T03:54:40.703Z,4.70
2018-12-02T03:55:14.848Z,4.70
2018-12-02T03:55:48.936Z,4.70
2018-12-02T03:56:23.276Z,4.70
2018-12-02T03:56:57.453Z,4.70
2018-12-02T03:57:31.657Z,4.70
2018-12-02T03:58:06.111Z,4.70
2018-12-02T03:58:40.235Z,4.70
2018-12-02T03:59:14.677Z,4.70
2018-12-02T03:59:48.822Z,4.70
2018-12-02T04:00:25.035Z,4.70
2018-12-02T04:00:59.191Z,4.70
2018-12-02T04:01:33.355Z,4.70
2018-12-02T04:02:07.792Z,4.70
2018-12-02T04:02:42.275Z,4.70
2018-12-02T04:03:16.394Z,4.70
2018-12-02T04:03:50.925Z,4.70
2018-12-02T04:04:25.059Z,4.70
2018-12-02T04:04:59.519Z,4.70
2018-12-02T04:05:33.644Z,4.70
2018-12-02T04:06:07.781Z,4.70
2018-12-02T04:06:41.970Z,4.70
2018-12-02T04:07:16.089Z,4.70
2018-12-02T04:07:50.908Z,4.70
2018-12-02T04:08:25.361Z,4.70
2018-12-02T04:08:59.504Z,4.70
2018-12-02T04:09:34.427Z,4.70
2018-12-02T04:10:14.754Z,4.70
2018-12-02T04:10:48.887Z,4.70
2018-12-02T04:11:23.029Z,4.80
2018-12-02T04:11:57.103Z,4.70
2018-12-02T04:12:31.228Z,4.80
2018-12-02T04:13:05.657Z,4.70
2018-12-02T04:13:39.801Z,4.70
2018-12-02T04:14:14.632Z,4.70
2018-12-02T04:14:49.152Z,4.70
2018-12-02T04:15:24.192Z,4.70
2018-12-02T04:15:58.327Z,4.70
2018-12-02T04:16:32.472Z,4.70
2018-12-02T04:17:06.940Z,4.70
2018-12-02T04:17:41.394Z,4.70
2018-12-02T04:18:15.858Z,4.70
2018-12-02T04:18:50.316Z,4.70
2018-12-02T04:19:24.439Z,4.70
2018-12-02T04:19:58.563Z,4.70
2018-12-02T04:20:32.695Z,4.70
2018-12-02T04:21:07.139Z,4.70
2018-12-02T04:21:41.230Z,4.70
2018-12-02T04:22:15.340Z,4.70
2018-12-02T04:22:50.834Z,4.80
2018-12-02T04:23:25.264Z,4.80
2018-12-02T04:23:59.362Z,4.80
2018-12-02T04:24:33.548Z,4.70
2018-12-02T04:25:09.303Z,4.80
2018-12-02T04:25:43.444Z,4.80
2018-12-02T04:26:17.580Z,4.80
2018-12-02T04:26:51.740Z,4.80
2018-12-02T04:27:25.852Z,4.80
2018-12-02T04:28:00.009Z,4.80
2018-12-02T04:28:34.180Z,4.80
2018-12-02T04:29:08.308Z,4.80
2018-12-02T04:29:42.451Z,4.80
2018-12-02T04:30:17.728Z,4.80
2018-12-02T04:30:51.876Z,4.80
2018-12-02T04:31:26.014Z,4.80
2018-12-02T04:32:00.122Z,4.80
2018-12-02T04:32:34.272Z,4.80
2018-12-02T04:33:08.390Z,4.80
2018-12-02T04:33:42.556Z,4.80
2018-12-02T04:34:16.688Z,4.80
2018-12-02T04:34:50.801Z,4.80
2018-12-02T04:35:25.856Z,4.80
2018-12-02T04:36:00.302Z,4.80
2018-12-02T04:36:34.551Z,4.80
2018-12-02T04:37:08.719Z,4.80
2018-12-02T04:37:43.149Z,4.80
2018-12-02T04:38:17.599Z,4.80
2018-12-02T04:38:58.422Z,4.80
2018-12-02T04:39:32.811Z,4.80
2018-12-02T04:40:08.708Z,4.80
2018-12-02T04:40:42.843Z,4.80
2018-12-02T04:41:16.970Z,4.80
2018-12-02T04:41:51.072Z,4.80
2018-12-02T04:42:25.203Z,4.80
2018-12-02T04:42:59.365Z,4.80
2018-12-02T04:43:33.484Z,4.80
2018-12-02T04:44:08.044Z,4.80
2018-12-02T04:44:42.521Z,4.80
2018-12-02T04:45:17.517Z,4.80
2018-12-02T04:45:51.630Z,4.80
2018-12-02T04:46:25.764Z,4.80
2018-12-02T04:46:59.965Z,4.80
2018-12-02T04:47:34.087Z,4.80
2018-12-02T04:48:08.554Z,4.80
2018-12-02T04:48:42.634Z,4.80
2018-12-02T04:49:16.777Z,4.80
2018-12-02T04:49:50.962Z,4.80
2018-12-02T04:50:25.492Z,4.80
2018-12-02T04:50:59.619Z,4.80
2018-12-02T04:51:33.710Z,4.80
2018-12-02T04:52:08.119Z,4.80
2018-12-02T04:52:42.585Z,4.80
2018-12-02T04:53:16.710Z,4.80
2018-12-02T04:53:50.878Z,4.80
2018-12-02T04:54:25.302Z,4.80
2018-12-02T04:54:59.407Z,4.80
2018-12-02T04:55:33.486Z,4.80
2018-12-02T04:56:07.599Z,4.80
2018-12-02T04:56:41.729Z,4.80
2018-12-02T04:57:15.811Z,4.80
2018-12-02T04:57:50.780Z,4.80
2018-12-02T04:58:24.880Z,4.80
2018-12-02T04:58:58.990Z,4.80
2018-12-02T04:59:33.430Z,4.80
2018-12-02T05:00:11.818Z,4.80
2018-12-02T05:00:45.981Z,4.80
2018-12-02T05:01:20.117Z,4.80
2018-12-02T05:01:54.234Z,4.80
2018-12-02T05:02:28.684Z,4.80
2018-12-02T05:03:02.824Z,4.80
2018-12-02T05:03:37.021Z,4.80
2018-12-02T05:04:11.160Z,4.80
2018-12-02T05:04:45.269Z,4.80
2018-12-02T05:05:21.402Z,4.80
2018-12-02T05:05:55.543Z,4.80
2018-12-02T05:06:29.668Z,4.80
2018-12-02T05:07:04.147Z,4.80
2018-12-02T05:07:38.394Z,4.80
2018-12-02T05:08:12.497Z,4.80
2018-12-02T05:08:46.589Z,4.80
2018-12-02T05:09:20.697Z,4.80
2018-12-02T05:09:54.826Z,4.80
2018-12-02T05:10:28.908Z,4.80
2018-12-02T05:11:03.308Z,4.80
2018-12-02T05:11:37.408Z,4.80
2018-12-02T05:12:11.503Z,4.80
2018-12-02T05:12:46.069Z,4.80
2018-12-02T05:13:20.183Z,4.80
2018-12-02T05:13:54.574Z,4.80
2018-12-02T05:14:28.782Z,4.80
2018-12-02T05:15:03.107Z,4.80
2018-12-02T05:15:37.543Z,4.80
2018-12-02T05:16:11.659Z,4.80
2018-12-02T05:16:45.759Z,4.80
2018-12-02T05:17:19.865Z,4.80
2018-12-02T05:17:53.938Z,4.80
2018-12-02T05:18:28.022Z,4.80
2018-12-02T05:19:02.128Z,4.80
2018-12-02T05:19:36.324Z,4.80
2018-12-02T05:20:11.665Z,4.80
2018-12-02T05:20:45.755Z,4.80
2018-12-02T05:21:19.861Z,4.80
2018-12-02T05:21:53.942Z,4.90
2018-12-02T05:22:28.034Z,4.80
2018-12-02T05:23:02.175Z,4.80
2018-12-02T05:23:36.283Z,4.90
2018-12-02T05:24:10.359Z,4.80
2018-12-02T05:24:44.463Z,4.80
2018-12-02T05:25:18.964Z,4.80
2018-12-02T05:25:53.083Z,4.90
2018-12-02T05:26:27.523Z,4.80
2018-12-02T05:27:01.669Z,4.90
2018-12-02T05:27:36.127Z,4.80
2018-12-02T05:28:10.276Z,4.80
2018-12-02T05:28:44.438Z,4.80
2018-12-02T05:29:18.611Z,4.80
2018-12-02T05:29:52.782Z,4.80
2018-12-02T05:30:26.937Z,4.90
2018-12-02T05:31:01.035Z,4.90
2018-12-02T05:31:35.239Z,4.90
2018-12-02T05:32:09.415Z,4.90
2018-12-02T05:32:43.991Z,4.90
2018-12-02T05:33:18.110Z,4.90
2018-12-02T05:33:52.238Z,4.90
2018-12-02T05:34:26.421Z,4.90
2018-12-02T05:35:00.499Z,4.90
2018-12-02T05:35:34.763Z,4.90
2018-12-02T05:36:08.884Z,4.90
2018-12-02T05:36:43.007Z,4.90
2018-12-02T05:37:17.230Z,4.90
2018-12-02T05:37:51.711Z,4.90
2018-12-02T05:38:26.197Z,4.90
2018-12-02T05:39:00.312Z,4.80
2018-12-02T05:39:34.460Z,4.90
2018-12-02T05:40:14.946Z,4.80
2018-12-02T05:40:49.169Z,4.90
2018-12-02T05:41:27.510Z,4.90
2018-12-02T05:42:07.256Z,4.90
2018-12-02T05:42:41.709Z,4.90
2018-12-02T05:43:15.962Z,4.90
2018-12-02T05:43:50.076Z,4.90
2018-12-02T05:44:24.184Z,4.90
2018-12-02T05:44:58.318Z,4.90
2018-12-02T05:45:32.582Z,4.90
2018-12-02T05:46:07.438Z,4.90
2018-12-02T05:46:41.572Z,4.90
2018-12-02T05:47:15.697Z,4.90
2018-12-02T05:47:50.156Z,4.90
2018-12-02T05:48:24.255Z,4.90
2018-12-02T05:48:58.398Z,4.90
2018-12-02T05:49:32.542Z,4.90
2018-12-02T05:50:10.710Z,4.90
2018-12-02T05:50:44.813Z,4.90
2018-12-02T05:51:18.939Z,4.90
2018-12-02T05:51:53.084Z,4.90
2018-12-02T05:52:27.519Z,4.90
2018-12-02T05:53:01.618Z,4.90
2018-12-02T05:53:35.800Z,4.90
2018-12-02T05:54:09.945Z,4.90
2018-12-02T05:54:44.116Z,4.80
2018-12-02T05:55:20.511Z,4.80
2018-12-02T05:55:54.622Z,4.90
2018-12-02T05:56:28.719Z,4.80
2018-12-02T05:57:02.799Z,4.80
2018-12-02T05:57:37.301Z,4.90
2018-12-02T05:58:11.396Z,4.80
2018-12-02T05:58:45.522Z,4.90
2018-12-02T05:59:19.642Z,4.80
2018-12-02T05:59:53.755Z,4.80
2018-12-02T06:00:28.570Z,4.90
2018-12-02T06:01:02.702Z,4.80
2018-12-02T06:01:36.873Z,4.80
2018-12-02T06:02:11.001Z,4.90
2018-12-02T06:02:45.505Z,4.90
2018-12-02T06:03:19.668Z,4.90
2018-12-02T06:03:53.829Z,4.90
2018-12-02T06:04:27.960Z,4.80
2018-12-02T06:05:02.398Z,4.80
2018-12-02T06:05:36.672Z,4.90
2018-12-02T06:06:11.107Z,4.90
2018-12-02T06:06:51.959Z,4.90
2018-12-02T06:07:26.574Z,4.90
2018-12-02T06:08:00.718Z,4.90
2018-12-02T06:08:34.945Z,4.90
2018-12-02T06:09:10.102Z,4.90
2018-12-02T06:09:44.198Z,4.90
2018-12-02T06:10:19.675Z,4.90
2018-12-02T06:10:53.803Z,4.90
2018-12-02T06:11:27.938Z,4.90
2018-12-02T06:12:02.379Z,4.90
2018-12-02T06:12:36.602Z,4.90
2018-12-02T06:13:10.715Z,4.90
2018-12-02T06:13:44.837Z,4.90
2018-12-02T06:14:18.932Z,4.90
2018-12-02T06:14:52.978Z,4.90
2018-12-02T06:15:27.109Z,4.90
2018-12-02T06:16:01.539Z,4.90
2018-12-02T06:16:36.301Z,5.00
2018-12-02T06:17:10.376Z,4.90
2018-12-02T06:17:44.480Z,4.90
2018-12-02T06:18:18.582Z,4.90
2018-12-02T06:18:53.057Z,4.90
2018-12-02T06:19:27.135Z,4.90
2018-12-02T06:20:04.748Z,4.90
2018-12-02T06:20:35.713Z,4.90
2018-12-02T06:21:09.852Z,4.90
2018-12-02T06:21:43.963Z,4.90
2018-12-02T06:22:18.380Z,4.90
2018-12-02T06:22:53.713Z,4.90
2018-12-02T06:23:27.778Z,4.90
2018-12-02T06:24:02.221Z,4.90
2018-12-02T06:24:36.645Z,4.90
2018-12-02T06:25:10.949Z,4.90
2018-12-02T06:25:46.565Z,4.90
2018-12-02T06:26:19.251Z,4.90
2018-12-02T06:26:53.399Z,4.90
2018-12-02T06:27:27.503Z,4.90
2018-12-02T06:28:01.619Z,4.90
2018-12-02T06:28:35.715Z,4.90
2018-12-02T06:29:09.857Z,4.90
2018-12-02T06:29:43.971Z,4.90
2018-12-02T06:30:20.021Z,4.90
2018-12-02T06:30:54.121Z,4.90
2018-12-02T06:31:28.259Z,4.90
2018-12-02T06:32:02.767Z,5.00
2018-12-02T06:32:36.980Z,4.90
2018-12-02T06:33:11.126Z,5.00
2018-12-02T06:33:45.331Z,4.90
2018-12-02T06:34:19.840Z,5.00
2018-12-02T06:34:54.025Z,4.90
2018-12-02T06:35:30.463Z,4.90
2018-12-02T06:36:04.903Z,4.90
2018-12-02T06:36:39.391Z,4.90
2018-12-02T06:37:13.865Z,5.00
2018-12-02T06:37:47.923Z,5.00
2018-12-02T06:38:22.065Z,4.90
2018-12-02T06:38:56.539Z,4.90
2018-12-02T06:39:30.676Z,4.90
2018-12-02T06:40:08.507Z,4.90
2018-12-02T06:40:42.645Z,4.90
2018-12-02T06:41:16.790Z,4.90
2018-12-02T06:41:51.263Z,5.00
2018-12-02T06:42:25.364Z,5.00
2018-12-02T06:42:59.486Z,4.90
2018-12-02T06:43:33.667Z,5.00
2018-12-02T06:44:08.105Z,5.00
2018-12-02T06:44:42.535Z,5.00
2018-12-02T06:45:16.632Z,5.00
2018-12-02T06:45:51.041Z,5.00
2018-12-02T06:46:25.189Z,5.00
2018-12-02T06:46:59.338Z,5.00
2018-12-02T06:47:33.525Z,5.00
2018-12-02T06:48:08.011Z,5.00
2018-12-02T06:48:42.487Z,5.00
2018-12-02T06:49:16.718Z,5.00
2018-12-02T06:49:50.850Z,5.00
2018-12-02T06:50:26.074Z,5.00
2018-12-02T06:51:00.288Z,5.00
2018-12-02T06:51:34.475Z,5.00
2018-12-02T06:52:08.591Z,5.00
2018-12-02T06:52:43.096Z,5.00
2018-12-02T06:53:17.210Z,5.00
2018-12-02T06:53:51.342Z,5.00
2018-12-02T06:54:27.689Z,5.00
2018-12-02T06:55:03.859Z,5.00
2018-12-02T06:55:43.055Z,5.00
2018-12-02T06:56:23.001Z,5.00
2018-12-02T06:56:59.865Z,5.00
2018-12-02T06:57:38.555Z,5.00
2018-12-02T06:58:22.867Z,5.00
2018-12-02T06:59:08.955Z,5.00
2018-12-02T06:59:50.149Z,5.00
2018-12-02T07:00:33.151Z,5.00
2018-12-02T07:01:33.263Z,5.10
2018-12-02T07:02:19.959Z,5.10
2018-12-02T07:03:19.039Z,5.00
2018-12-02T07:04:13.631Z,5.00
2018-12-02T07:04:47.716Z,5.10
2018-12-02T07:05:26.269Z,5.10
2018-12-02T07:06:00.373Z,5.10
2018-12-02T07:06:34.511Z,5.10
2018-12-02T07:07:08.643Z,5.10
2018-12-02T07:07:42.823Z,5.00
2018-12-02T07:08:16.944Z,5.00
2018-12-02T07:08:51.449Z,5.00
2018-12-02T07:09:25.563Z,5.10
2018-12-02T07:09:59.676Z,5.10
2018-12-02T07:10:33.777Z,5.10
2018-12-02T07:11:08.227Z,5.00
2018-12-02T07:11:42.883Z,5.00
2018-12-02T07:12:17.331Z,5.10
2018-12-02T07:12:51.763Z,5.00
2018-12-02T07:13:25.887Z,5.00
2018-12-02T07:14:00.015Z,5.10
2018-12-02T07:14:34.094Z,5.00
2018-12-02T07:15:08.178Z,5.00
2018-12-02T07:15:42.647Z,5.10
2018-12-02T07:16:16.731Z,5.00
2018-12-02T07:16:50.839Z,5.10
2018-12-02T07:17:26.638Z,5.10
2018-12-02T07:18:01.881Z,5.10
2018-12-02T07:18:40.180Z,5.10
2018-12-02T07:19:21.212Z,5.10
2018-12-02T07:19:56.431Z,5.10
2018-12-02T07:20:32.411Z,5.10
2018-12-02T07:21:09.564Z,5.10
2018-12-02T07:21:46.447Z,5.00
2018-12-02T07:22:26.382Z,5.10
2018-12-02T07:23:02.531Z,5.10
2018-12-02T07:23:40.476Z,5.00
2018-12-02T07:24:18.019Z,5.00
2018-12-02T07:24:53.290Z,5.00
2018-12-02T07:25:28.531Z,5.10
2018-12-02T07:26:04.626Z,5.10
2018-12-02T07:26:43.867Z,5.00
2018-12-02T07:27:17.970Z,5.10
2018-12-02T07:27:52.431Z,5.10
2018-12-02T07:28:26.593Z,5.10
2018-12-02T07:29:00.675Z,5.10
2018-12-02T07:29:35.108Z,5.10
2018-12-02T07:30:10.479Z,5.10
2018-12-02T07:30:44.921Z,5.10
2018-12-02T07:31:19.019Z,5.10
2018-12-02T07:31:53.580Z,5.10
2018-12-02T07:32:28.051Z,5.10
2018-12-02T07:33:02.163Z,5.10
2018-12-02T07:33:36.239Z,5.10
2018-12-02T07:34:10.333Z,5.10
2018-12-02T07:34:44.453Z,5.10
2018-12-02T07:35:18.887Z,5.10
2018-12-02T07:35:52.971Z,5.20
2018-12-02T07:36:27.067Z,5.20
2018-12-02T07:37:03.583Z,5.20
2018-12-02T07:37:37.947Z,5.20
2018-12-02T07:38:22.623Z,5.20
2018-12-02T07:39:08.085Z,5.20
2018-12-02T07:40:04.143Z,5.10
2018-12-02T07:40:39.732Z,5.10
2018-12-02T07:41:14.345Z,5.20
2018-12-02T07:41:48.476Z,5.20
2018-12-02T07:42:22.619Z,5.20
2018-12-02T07:42:56.727Z,5.20
2018-12-02T07:43:30.827Z,5.20
2018-12-02T07:44:05.045Z,5.20
2018-12-02T07:44:39.171Z,5.20
2018-12-02T07:45:13.943Z,5.20
2018-12-02T07:45:48.036Z,5.20
2018-12-02T07:46:22.138Z,5.20
2018-12-02T07:46:56.605Z,5.20
2018-12-02T07:47:30.876Z,5.20